Terminal Aerodrome Forecast
Issued by NWS

Home | Current Version | Previous Version | Text Only | Print | Product List | Glossary On
Versions: 1 2 3 4 5 6 7 8 9 10 11 12 13 14 15 16 17 18 19 20 21 22 23 24
000
FTUS43 KMQT 281131
TAFSAW
TAF
KSAW 281131Z 2812/2912 00000KT P6SM SKC
     FM281900 22006KT P6SM SKC
     FM290300 20010G17KT P6SM FEW150 WS015/22035KT=

USA.gov is the U.S. government's official web portal to all federal, state and local government web resources and services.